Disclaimer

Please do not use the information listed here in-flight or in-navigation, as they are not provided to us by the airports but are provided by volunteers, so they might be outdated.

Search


Regions


Airport information page

Radio informations:
Tower (TWR) - 118.9 MHz
Ground (GND) - 121.9 MHz
Automatic Terminal Information Service (ATIS) - 112.6 MHz
Approach (APP) - 119.3 MHz

Airport informations:
Latitude: 33° 49' 15.35" N
Longitude: 035° 29' 18.20" E
Elevation: 87 feet - 27 meters
Operating hours: 24 hour operations
Operating agency: Military-civil joint use airport
Timezone: UTC+2(+3DT)
Fuel: Jet fuel available but type is unknown.

Runway information:
03/21 - 12467 x 148 feet< - >3800 x 45 meters
16/34 - 11138 x 148 feet< - >3395 x 45 meters
17/35 - 10663 x 197 feet< - >3250 x 60 meters

Recent METARs:
OLBA 182300Z 11003KT 9999 BKN080 20/09 Q1016 NOSIG
OLBA 190000Z 16003KT 9999 BKN080 20/09 Q1016 NOSIG
OLBA 190000Z 16003KT 9999 BKN080 20/09 Q1016 NOSIG

Airport on the map: